Time;durP1;ratioP1;P1;durP2;ratioP2;P2;SDS_P1;SDS_P2;PMS_P1;PMS_P2;Temp;Humidity;BMP_temperature;BMP_pressure;BME280_temperature;BME280_humidity;BME280_pressure;Samples;Min_cycle;Max_cycle;Signal;HPM_P1;HPM_P2
2021/05/31 00:01:59;;;;;;;9.13;7.77;;;;;;;13.23;100.00;101849.19;4917395;29;20231;-77
2021/05/31 00:04:25;;;;;;;11.07;7.20;;;;;;;13.11;100.00;101845.78;4935786;29;20195;-77
2021/05/31 00:07:03;;;;;;;9.40;7.40;;;;;;;13.07;100.00;101850.94;4918362;29;20235;-77
2021/05/31 00:09:31;;;;;;;8.83;6.70;;;;;;;13.01;100.00;101848.44;4917314;29;20195;-76
2021/05/31 00:11:59;;;;;;;9.37;7.17;;;;;;;12.92;100.00;101846.44;4930159;29;20279;-76
2021/05/31 00:14:28;;;;;;;10.60;7.33;;;;;;;12.93;100.00;101843.47;4928675;29;20225;-77
2021/05/31 00:16:56;;;;;;;10.53;7.50;;;;;;;12.93;100.00;101843.47;4915429;29;20235;-76
2021/05/31 00:19:21;;;;;;;8.90;7.03;;;;;;;13.02;100.00;101839.19;4917683;29;20215;-75
2021/05/31 00:21:47;;;;;;;8.27;7.37;;;;;;;12.95;100.00;101846.75;4933655;29;20244;-77
2021/05/31 00:24:13;;;;;;;11.17;7.67;;;;;;;12.95;100.00;101846.75;4918888;29;20202;-77
2021/05/31 00:26:41;;;;;;;9.83;7.17;;;;;;;12.93;100.00;101838.00;4918029;29;20281;-77
2021/05/31 00:29:09;;;;;;;7.73;6.93;;;;;;;12.77;100.00;101849.78;4918331;29;20215;-77
2021/05/31 00:31:35;;;;;;;9.87;7.00;;;;;;;12.73;100.00;101837.78;4933787;29;20228;-77
2021/05/31 00:34:02;;;;;;;8.63;7.57;;;;;;;12.70;100.00;101832.81;4934391;29;20198;-76
2021/05/31 00:36:31;;;;;;;9.00;8.03;;;;;;;12.60;100.00;101839.25;4933860;29;20793;-76
2021/05/31 00:38:56;;;;;;;8.23;7.43;;;;;;;12.48;100.00;101844.03;4918632;29;20307;-76
2021/05/31 00:41:23;;;;;;;8.97;6.63;;;;;;;12.49;100.00;101834.75;4949919;28;20235;-76
2021/05/31 00:43:54;;;;;;;8.67;6.60;;;;;;;12.51;100.00;101843.50;4925092;29;20189;-76
2021/05/31 00:46:19;;;;;;;7.43;6.53;;;;;;;12.54;100.00;101841.09;4927086;29;20751;-77
2021/05/31 00:48:50;;;;;;;11.33;7.13;;;;;;;12.62;100.00;101837.06;4916404;29;20611;-76
2021/05/31 00:51:18;;;;;;;9.47;7.03;;;;;;;12.50;100.00;101847.31;4914717;29;20718;-76
2021/05/31 00:53:43;;;;;;;8.97;6.47;;;;;;;12.28;100.00;101842.97;4914492;29;20279;-76
2021/05/31 00:56:13;;;;;;;7.90;6.67;;;;;;;12.26;100.00;101850.56;4883655;29;20231;-76
2021/05/31 00:58:39;;;;;;;9.07;7.00;;;;;;;12.19;100.00;101848.03;4914928;29;20642;-76
2021/05/31 01:01:05;;;;;;;9.00;7.27;;;;;;;12.14;100.00;101848.00;4898685;29;20216;-77
2021/05/31 01:03:31;;;;;;;7.70;6.53;;;;;;;12.03;100.00;101846.22;4914539;29;20616;-77
2021/05/31 01:06:00;;;;;;;9.37;6.50;;;;;;;12.04;100.00;101853.28;4914289;29;20306;-77
2021/05/31 01:08:29;;;;;;;8.13;6.57;;;;;;;12.16;100.00;101845.00;4899907;29;20631;-76
2021/05/31 01:11:04;;;;;;;7.93;6.43;;;;;;;12.12;100.00;101854.75;4914485;29;20286;-76
2021/05/31 01:13:57;;;;;;;9.50;6.97;;;;;;;12.12;100.00;101855.56;4946825;29;20226;-76
2021/05/31 01:16:52;;;;;;;8.27;6.90;;;;;;;12.05;100.00;101857.69;4933104;29;20295;-77
2021/05/31 01:19:34;;;;;;;8.10;6.87;;;;;;;12.15;100.00;101855.06;4913160;29;20613;-77
2021/05/31 01:22:01;;;;;;;7.37;6.67;;;;;;;12.21;100.00;101850.50;4917681;29;20289;-76
2021/05/31 01:24:45;;;;;;;10.93;6.60;;;;;;;12.21;100.00;101859.50;4934938;29;20172;-76
2021/05/31 01:27:20;;;;;;;10.00;6.27;;;;;;;12.29;100.00;101856.34;4919093;29;20697;-77
2021/05/31 01:30:06;;;;;;;6.63;5.77;;;;;;;12.18;100.00;101854.56;4932998;29;20633;-76
2021/05/31 01:32:39;;;;;;;7.13;6.10;;;;;;;12.18;100.00;101860.03;4932527;29;20247;-76
2021/05/31 01:35:06;;;;;;;7.03;5.83;;;;;;;12.12;100.00;101854.75;4933253;29;20192;-77
2021/05/31 01:37:37;;;;;;;7.60;5.87;;;;;;;12.14;100.00;101852.59;4933333;29;20214;-76
2021/05/31 01:40:09;;;;;;;7.77;6.03;;;;;;;12.20;100.00;101851.59;4933701;29;20460;-75
2021/05/31 01:42:34;;;;;;;6.97;5.93;;;;;;;12.25;100.00;101848.91;4916094;29;20708;-76
2021/05/31 01:45:03;;;;;;;6.67;5.30;;;;;;;12.33;100.00;101849.31;4917282;29;20192;-76
2021/05/31 01:47:28;;;;;;;6.67;5.43;;;;;;;12.34;100.00;101854.50;4932640;29;20231;-76
2021/05/31 01:49:56;;;;;;;6.10;5.40;;;;;;;12.33;100.00;101857.47;4917507;29;20222;-76
2021/05/31 01:52:22;;;;;;;5.83;5.20;;;;;;;12.19;100.00;101849.94;4916356;29;20230;-77
2021/05/31 01:54:51;;;;;;;7.20;5.30;;;;;;;12.14;100.00;101858.88;4917380;29;20203;-77
2021/05/31 01:57:17;;;;;;;9.07;5.93;;;;;;;12.25;100.00;101859.81;4916913;29;20782;-75
2021/05/31 01:59:43;;;;;;;7.90;5.43;;;;;;;12.13;100.00;101851.78;4932681;29;20211;-77
2021/05/31 02:02:08;;;;;;;7.10;5.17;;;;;;;12.17;100.00;101847.47;4931484;29;20223;-76
2021/05/31 02:04:38;;;;;;;7.37;5.30;;;;;;;12.20;100.00;101843.44;4917456;29;20180;-76
2021/05/31 02:07:03;;;;;;;7.37;5.50;;;;;;;12.22;100.00;101847.53;4916660;29;20239;-76
2021/05/31 02:09:29;;;;;;;6.87;5.97;;;;;;;12.18;100.00;101837.38;4932895;29;20234;-76
2021/05/31 02:12:08;;;;;;;8.57;5.40;;;;;;;12.29;100.00;101842.72;4915435;29;20235;-77
2021/05/31 02:14:43;;;;;;;6.67;5.20;;;;;;;12.29;100.00;101838.09;4929697;29;20226;-77
2021/05/31 02:17:25;;;;;;;5.57;5.00;;;;;;;12.28;100.00;101843.78;4916921;29;20606;-77
2021/05/31 02:19:58;;;;;;;6.37;4.87;;;;;;;12.23;100.00;101841.00;4917613;29;20243;-77
2021/05/31 02:22:24;;;;;;;6.57;5.17;;;;;;;12.11;100.00;101851.22;4916469;29;20728;-76
2021/05/31 02:24:54;;;;;;;6.27;4.80;;;;;;;12.11;100.00;101847.66;4917144;29;20182;-78
2021/05/31 02:27:22;;;;;;;5.53;4.90;;;;;;;12.06;100.00;101850.31;4917426;29;20725;-76
2021/05/31 02:29:47;;;;;;;5.43;4.90;;;;;;;12.01;100.00;101851.09;4917078;29;20239;-76
2021/05/31 02:32:15;;;;;;;7.10;5.00;;;;;;;11.91;100.00;101849.31;4915713;29;20219;-76
2021/05/31 02:34:41;;;;;;;6.93;4.73;;;;;;;11.83;100.00;101836.09;4900653;29;20246;-77
2021/05/31 02:37:12;;;;;;;7.43;5.40;;;;;;;11.94;100.00;101836.81;4931753;29;20710;-76
2021/05/31 02:39:37;;;;;;;8.20;4.67;;;;;;;11.81;100.00;101843.69;4932188;29;20322;-76
2021/05/31 02:42:04;;;;;;;5.57;4.77;;;;;;;11.75;100.00;101847.44;4914401;29;20637;-77
2021/05/31 02:44:29;;;;;;;6.23;4.80;;;;;;;11.68;100.00;101836.72;4946245;29;20666;-76
2021/05/31 02:46:57;;;;;;;7.00;4.60;;;;;;;11.61;100.00;101841.53;4916513;29;20298;-77
2021/05/31 02:49:25;;;;;;;6.93;4.50;;;;;;;11.60;100.00;101839.06;4947744;29;20419;-77
2021/05/31 02:51:53;;;;;;;7.13;4.40;;;;;;;11.65;100.00;101836.41;4930525;29;20223;-77
2021/05/31 02:54:22;;;;;;;4.90;4.40;;;;;;;11.63;100.00;101838.56;4932133;29;20204;-76
2021/05/31 02:56:48;;;;;;;6.43;5.10;;;;;;;11.69;100.00;101837.56;4931717;29;20232;-76
2021/05/31 02:59:14;;;;;;;6.33;4.80;;;;;;;11.66;100.00;101838.84;4932013;29;20243;-76
2021/05/31 03:01:39;;;;;;;6.33;5.00;;;;;;;11.71;100.00;101843.56;4915415;29;20229;-75
2021/05/31 03:04:05;;;;;;;5.67;4.57;;;;;;;11.57;100.00;101844.97;4916269;29;20572;-75
2021/05/31 03:06:31;;;;;;;6.27;4.60;;;;;;;11.53;100.00;101846.56;4931618;29;20249;-74
2021/05/31 03:08:59;;;;;;;6.53;4.70;;;;;;;11.50;100.00;101855.25;4916226;29;20661;-76
2021/05/31 03:11:25;;;;;;;5.47;4.30;;;;;;;11.37;100.00;101849.25;4915802;29;20271;-75
2021/05/31 03:13:53;;;;;;;6.00;4.47;;;;;;;11.42;100.00;101847.44;4915739;29;20184;-75
2021/05/31 03:16:21;;;;;;;5.13;4.50;;;;;;;11.38;100.00;101846.28;4912342;29;20243;-76
2021/05/31 03:18:47;;;;;;;5.23;4.50;;;;;;;11.45;100.00;101852.44;4930101;29;20283;-76
2021/05/31 03:21:12;;;;;;;6.50;4.73;;;;;;;11.39;100.00;101841.66;4931461;29;20684;-75
2021/05/31 03:23:38;;;;;;;6.33;4.93;;;;;;;11.48;100.00;101846.47;4914371;29;20588;-76
2021/05/31 03:26:08;;;;;;;5.00;4.50;;;;;;;11.50;100.00;101852.53;4930535;29;20231;-75
2021/05/31 03:28:34;;;;;;;6.03;4.60;;;;;;;11.51;100.00;101846.00;4931331;29;20258;-76
2021/05/31 03:31:02;;;;;;;5.70;4.60;;;;;;;11.53;100.00;101843.84;4899526;29;20720;-77
2021/05/31 03:33:28;;;;;;;5.90;4.30;;;;;;;11.51;100.00;101840.53;4931474;29;20195;-75
2021/05/31 03:35:53;;;;;;;6.23;4.77;;;;;;;11.08;100.00;101844.16;4927961;29;20228;-76
2021/05/31 03:38:19;;;;;;;4.90;4.40;;;;;;;11.14;100.00;101833.13;4932150;29;20188;-75
2021/05/31 03:40:44;;;;;;;6.07;5.03;;;;;;;11.20;100.00;101837.56;4915823;29;20232;-76
2021/05/31 03:43:12;;;;;;;6.60;4.57;;;;;;;11.27;100.00;101840.94;4916032;29;20563;-76
2021/05/31 03:45:38;;;;;;;7.07;4.77;;;;;;;11.22;100.00;101846.28;4932883;29;20224;-78
2021/05/31 03:48:04;;;;;;;6.07;4.63;;;;;;;11.37;100.00;101844.66;4905207;29;20219;-77
2021/05/31 03:50:32;;;;;;;5.63;4.20;;;;;;;11.38;100.00;101846.28;4921091;28;20189;-77
2021/05/31 03:53:00;;;;;;;5.40;4.60;;;;;;;11.44;100.00;101844.47;4923284;29;20194;-77
2021/05/31 03:55:30;;;;;;;6.10;4.60;;;;;;;12.29;100.00;101835.38;4948175;29;20283;-77
2021/05/31 03:57:58;;;;;;;5.47;4.43;;;;;;;12.34;100.00;101837.31;4945426;29;20196;-77
2021/05/31 04:00:24;;;;;;;6.43;4.57;;;;;;;12.26;100.00;101845.94;4947612;29;20238;-76
2021/05/31 04:02:52;;;;;;;5.70;4.17;;;;;;;12.17;100.00;101842.00;4943444;29;20664;-76
2021/05/31 04:05:22;;;;;;;5.70;4.20;;;;;;;12.44;100.00;101837.44;4939008;29;20238;-76
2021/05/31 04:13:19;;;;;;;5.77;4.00;;;;;;;12.13;100.00;101851.78;4930535;29;20194;-76
2021/05/31 04:15:47;;;;;;;5.57;4.33;;;;;;;12.00;100.00;101845.88;4904651;29;20705;-76
2021/05/31 04:18:16;;;;;;;4.53;4.13;;;;;;;11.89;100.00;101843.28;4921370;29;20573;-76
2021/05/31 04:20:41;;;;;;;5.30;4.23;;;;;;;12.10;100.00;101852.28;4937276;29;20306;-76
2021/05/31 04:23:12;;;;;;;4.20;3.70;;;;;;;12.19;100.00;101842.59;4951347;29;20184;-77
2021/05/31 04:25:38;;;;;;;6.47;4.33;;;;;;;12.11;100.00;101853.94;4919802;29;20231;-76
2021/05/31 04:28:07;;;;;;;5.60;4.13;;;;;;;12.22;100.00;101849.44;4936346;29;20214;-76
2021/05/31 04:30:35;;;;;;;4.63;3.87;;;;;;;12.34;100.00;101848.22;4935303;29;20220;-77
2021/05/31 04:33:03;;;;;;;5.57;4.27;;;;;;;12.40;100.00;101849.94;4950860;29;20270;-75
2021/05/31 04:35:29;;;;;;;5.27;4.20;;;;;;;12.45;100.00;101856.28;4934323;29;20697;-74
2021/05/31 04:37:56;;;;;;;5.17;4.07;;;;;;;12.46;100.00;101857.09;4935376;29;20198;-76
2021/05/31 04:40:22;;;;;;;5.13;4.27;;;;;;;12.52;100.00;101845.16;4934401;29;20271;-75
2021/05/31 04:42:50;;;;;;;4.83;4.40;;;;;;;12.60;100.00;101852.88;4933562;29;20179;-75
2021/05/31 04:45:21;;;;;;;6.23;4.60;;;;;;;12.57;100.00;101842.50;4918810;29;20179;-76
2021/05/31 04:47:49;;;;;;;5.73;4.30;;;;;;;12.70;100.00;101854.63;4931190;29;20188;-75
2021/05/31 04:50:17;;;;;;;6.87;4.70;;;;;;;12.80;100.00;101849.31;4916183;29;20276;-74
2021/05/31 04:52:43;;;;;;;4.47;4.00;;;;;;;12.91;100.00;101851.06;4918619;29;20196;-75
2021/05/31 04:55:16;;;;;;;4.93;4.20;;;;;;;13.55;98.16;101851.63;4917838;29;20239;-75
2021/05/31 04:57:44;;;;;;;7.83;4.17;;;;;;;13.58;96.07;101847.53;4915990;29;20258;-76
2021/05/31 05:00:13;;;;;;;5.23;4.03;;;;;;;13.66;95.35;101855.22;4933336;29;20215;-76
2021/05/31 05:02:39;;;;;;;6.37;3.90;;;;;;;13.40;94.31;101852.59;4944446;29;20223;-76
2021/05/31 05:05:05;;;;;;;4.23;3.57;;;;;;;13.42;92.11;101861.31;4931657;29;20251;-76
2021/05/31 05:07:31;;;;;;;5.13;4.17;;;;;;;13.44;91.00;101851.78;4950052;29;20207;-76
2021/05/31 05:10:01;;;;;;;7.20;3.80;;;;;;;13.63;90.53;101851.13;4934152;29;20188;-74
2021/05/31 05:12:27;;;;;;;3.93;3.47;;;;;;;13.70;86.67;101849.00;4946605;28;20225;-76
2021/05/31 05:14:55;;;;;;;20.03;13.33;;;;;;;13.83;86.12;101845.78;4934508;29;20217;-75
2021/05/31 05:17:23;;;;;;;5.73;3.97;;;;;;;13.83;86.39;101843.06;4914866;29;20238;-71
2021/05/31 05:19:48;;;;;;;5.20;3.40;;;;;;;13.81;82.65;101847.97;4934310;29;20643;-76
2021/05/31 05:22:17;;;;;;;3.90;3.27;;;;;;;13.83;78.78;101840.31;4917711;29;20227;-75
2021/05/31 05:24:45;;;;;;;5.30;2.93;;;;;;;13.97;77.42;101846.94;4916771;29;20579;-75
2021/05/31 05:27:15;;;;;;;4.00;2.83;;;;;;;14.05;77.90;101855.50;4949249;28;20223;-75
2021/05/31 05:29:43;;;;;;;4.20;3.10;;;;;;;14.10;78.34;101846.50;4933743;29;20195;-75
2021/05/31 05:32:12;;;;;;;15.00;10.57;;;;;;;13.96;77.34;101856.25;4916811;29;20238;-76
2021/05/31 05:34:38;;;;;;;9.03;7.63;;;;;;;14.01;76.72;101856.25;4918349;29;20203;-76
2021/05/31 05:37:13;;;;;;;4.57;3.10;;;;;;;13.97;76.07;101850.53;4916062;29;20236;-76
2021/05/31 05:40:13;;;;;;;4.73;2.60;;;;;;;13.95;72.74;101847.19;4919091;29;20216;-75
2021/05/31 05:48:09;;;;;;;2.97;2.67;;;;;;;14.19;77.17;101850.38;5051518;28;20277;-75
2021/05/31 05:50:35;;;;;;;3.90;2.80;;;;;;;14.34;73.77;101837.56;5052476;28;20816;-74
2021/05/31 05:53:03;;;;;;;3.93;2.90;;;;;;;14.32;71.65;101839.75;5035742;28;20186;-74
2021/05/31 05:55:28;;;;;;;4.10;2.70;;;;;;;14.49;71.34;101835.72;5068808;28;20644;-75
2021/05/31 05:57:57;;;;;;;3.73;2.80;;;;;;;14.55;71.76;101831.91;5069609;28;20182;-76
2021/05/31 06:00:26;;;;;;;2.70;2.50;;;;;;;14.77;73.24;101843.47;5069347;28;20182;-75
2021/05/31 06:02:59;;;;;;;3.13;2.60;;;;;;;14.85;68.90;101834.69;5069509;28;20189;-76
2021/05/31 06:05:25;;;;;;;3.60;2.67;;;;;;;14.82;67.49;101840.75;5082060;28;20218;-75
2021/05/31 06:07:51;;;;;;;5.63;2.50;;;;;;;14.91;67.36;101844.56;5066025;28;20202;-75
2021/05/31 06:10:19;;;;;;;5.10;2.33;;;;;;;14.70;66.93;101838.22;5048706;28;20192;-75
2021/05/31 06:12:47;;;;;;;3.27;2.50;;;;;;;14.93;67.66;101842.41;5065300;28;20209;-74
2021/05/31 06:15:13;;;;;;;4.40;2.43;;;;;;;15.12;65.71;101836.91;5048973;28;20183;-75
2021/05/31 06:17:41;;;;;;;5.57;2.50;;;;;;;15.16;65.53;101832.59;5049064;28;20210;-75
2021/05/31 06:20:11;;;;;;;3.15;2.15;;;;;;;15.62;65.21;101825.97;5049252;28;20710;-74
2021/05/31 06:22:40;;;;;;;3.40;2.20;;;;;;;15.33;61.13;101832.28;5068289;28;20214;-75
2021/05/31 06:25:09;;;;;;;3.53;2.30;;;;;;;15.44;59.01;101824.63;5069454;28;20178;-75
2021/05/31 06:27:37;;;;;;;3.97;2.10;;;;;;;15.61;62.16;101824.34;5068896;28;20259;-74
2021/05/31 06:30:06;;;;;;;3.13;2.03;;;;;;;15.87;59.45;101833.03;5086204;28;20190;-76
2021/05/31 06:32:34;;;;;;;2.72;1.88;;;;;;;15.84;56.29;101825.38;5068152;28;20292;-75
2021/05/31 06:35:01;;;;;;;2.08;1.80;;;;;;;16.10;56.62;101837.06;5085820;28;20312;-76
2021/05/31 06:37:27;;;;;;;3.17;1.75;;;;;;;16.32;55.29;101831.00;5052057;28;20222;-74
2021/05/31 06:39:53;;;;;;;2.17;1.80;;;;;;;16.24;52.38;101836.22;5086079;28;20198;-75
2021/05/31 06:42:22;;;;;;;3.15;1.60;;;;;;;16.28;51.21;101829.91;5049423;28;20222;-75
2021/05/31 06:44:47;;;;;;;2.75;1.50;;;;;;;16.41;52.70;101831.22;5053222;28;20175;-76
2021/05/31 06:47:15;;;;;;;1.30;1.13;;;;;;;16.46;50.37;101836.69;5050839;28;20231;-76
2021/05/31 06:49:46;;;;;;;2.67;1.55;;;;;;;16.71;49.88;101832.69;5049039;28;20183;-76
2021/05/31 06:52:16;;;;;;;2.00;1.50;;;;;;;17.02;49.46;101829.47;5078880;28;20237;-75
2021/05/31 06:54:42;;;;;;;2.45;1.30;;;;;;;16.98;48.15;101831.13;5051274;28;20210;-75
2021/05/31 06:57:10;;;;;;;1.65;1.30;;;;;;;17.28;48.35;101833.69;5050973;28;21008;-74
2021/05/31 06:59:38;;;;;;;1.52;1.23;;;;;;;17.46;47.26;101836.53;5051706;28;20680;-75
2021/05/31 07:02:08;;;;;;;2.75;1.60;;;;;;;17.61;47.94;101828.16;5051742;28;20237;-75
2021/05/31 07:04:38;;;;;;;1.50;1.20;;;;;;;17.68;45.53;101830.56;5035937;28;20275;-75
2021/05/31 07:07:06;;;;;;;3.08;2.00;;;;;;;17.77;45.74;101832.38;5034817;28;20311;-75
2021/05/31 07:09:33;;;;;;;1.50;1.20;;;;;;;17.40;43.82;101825.91;5036379;28;20176;-76
2021/05/31 07:12:02;;;;;;;2.42;1.40;;;;;;;17.58;45.67;101817.75;5051520;28;20458;-76
2021/05/31 07:14:38;;;;;;;2.83;1.30;;;;;;;17.58;43.84;101823.25;5085432;28;20271;-77
2021/05/31 07:17:03;;;;;;;2.35;1.23;;;;;;;17.90;42.84;101815.19;5052491;28;20231;-76
2021/05/31 07:19:29;;;;;;;2.35;1.30;;;;;;;17.83;44.73;101817.47;5051355;28;20245;-77
2021/05/31 07:21:59;;;;;;;1.25;1.15;;;;;;;17.64;43.18;101816.59;5049983;28;20220;-76
2021/05/31 07:24:27;;;;;;;1.15;1.00;;;;;;;17.74;39.13;101822.78;5051319;28;20219;-76
2021/05/31 07:26:56;;;;;;;1.85;0.80;;;;;;;17.46;38.97;101832.97;5066063;28;20377;-75
2021/05/31 07:29:24;;;;;;;2.55;1.15;;;;;;;17.30;37.60;101825.16;5072421;28;20217;-76
2021/05/31 07:31:51;;;;;;;2.03;0.90;;;;;;;17.31;37.84;101826.78;5069204;28;20265;-76
2021/05/31 07:34:22;;;;;;;1.65;0.85;;;;;;;17.33;38.82;101823.47;5071736;28;20171;-75
2021/05/31 07:36:47;;;;;;;0.90;0.90;;;;;;;17.21;38.91;101824.13;5049451;28;20227;-75
2021/05/31 07:39:13;;;;;;;1.00;1.00;;;;;;;17.51;38.24;101816.44;5034560;28;20333;-76
2021/05/31 07:41:39;;;;;;;1.90;0.93;;;;;;;17.73;36.93;101817.59;5062459;28;20230;-79
2021/05/31 07:44:04;;;;;;;0.95;0.82;;;;;;;17.90;37.62;101829.75;5070656;28;20179;-76
2021/05/31 07:46:35;;;;;;;3.20;0.90;;;;;;;18.03;36.99;101809.81;5053794;28;20242;-75
2021/05/31 07:49:02;;;;;;;0.95;0.80;;;;;;;18.12;36.54;101819.91;5071205;28;20179;-76
2021/05/31 07:51:28;;;;;;;1.50;1.00;;;;;;;18.43;37.63;101815.66;5060233;28;20220;-77
2021/05/31 07:53:57;;;;;;;0.90;0.88;;;;;;;18.80;37.81;101804.66;5054286;28;20186;-77
2021/05/31 07:56:28;;;;;;;1.20;0.80;;;;;;;18.94;36.84;101801.69;5026985;28;20233;-77
2021/05/31 07:58:57;;;;;;;1.13;0.82;;;;;;;19.04;37.05;101795.22;5052287;28;20187;-76
2021/05/31 08:01:27;;;;;;;1.38;0.80;;;;;;;18.89;36.18;101795.44;5027641;28;20330;-76
2021/05/31 08:03:55;;;;;;;1.45;0.90;;;;;;;18.79;34.30;101803.00;5053324;28;20210;-75
2021/05/31 08:06:22;;;;;;;0.90;0.80;;;;;;;18.73;34.95;101804.22;5042384;28;20716;-77
2021/05/31 08:08:50;;;;;;;0.63;0.60;;;;;;;18.52;34.49;101797.38;5033554;28;20192;-75
2021/05/31 08:11:20;;;;;;;1.27;0.73;;;;;;;19.12;35.83;101798.13;5055649;28;20265;-76
2021/05/31 08:13:46;;;;;;;0.93;0.70;;;;;;;19.24;34.46;101794.88;5049713;28;20251;-76
2021/05/31 08:16:16;;;;;;;0.80;0.60;;;;;;;19.28;32.42;101800.31;5075860;28;20260;-75
2021/05/31 08:18:44;;;;;;;0.70;0.70;;;;;;;19.10;30.71;101799.53;5070327;28;20182;-76
2021/05/31 08:21:10;;;;;;;0.77;0.70;;;;;;;19.13;30.87;101799.75;5072076;28;20218;-77
2021/05/31 08:23:36;;;;;;;1.52;0.80;;;;;;;19.45;32.71;101792.28;5071316;28;20214;-76
2021/05/31 08:26:04;;;;;;;1.75;0.65;;;;;;;19.91;31.84;101798.63;5088852;28;20237;-77
2021/05/31 08:28:36;;;;;;;1.08;0.68;;;;;;;19.70;30.83;101795.38;5057512;28;20190;-76
2021/05/31 08:31:05;;;;;;;1.58;0.65;;;;;;;19.92;30.04;101791.97;5089532;28;20680;-77
2021/05/31 08:33:30;;;;;;;1.15;0.70;;;;;;;19.96;30.96;101793.00;5072576;28;20217;-75
2021/05/31 08:35:58;;;;;;;0.88;0.70;;;;;;;20.04;30.34;101793.09;5056066;28;20749;-77
2021/05/31 08:38:29;;;;;;;0.70;0.70;;;;;;;19.74;31.64;101796.44;5090098;28;20206;-74
2021/05/31 08:41:01;;;;;;;1.58;0.80;;;;;;;19.71;32.43;101786.00;5089277;28;20222;-75
2021/05/31 08:43:27;;;;;;;1.23;0.70;;;;;;;20.24;31.24;101779.69;5064272;28;20190;-75
2021/05/31 08:45:56;;;;;;;0.90;0.68;;;;;;;20.22;30.59;101789.44;5048604;28;21116;-74
2021/05/31 08:48:21;;;;;;;1.27;0.90;;;;;;;20.13;30.66;101788.50;5049666;28;20188;-75
2021/05/31 08:50:47;;;;;;;1.63;0.93;;;;;;;20.04;31.23;101782.06;5037903;28;20241;-75
2021/05/31 08:53:13;;;;;;;1.27;0.70;;;;;;;20.19;31.73;101787.28;5068945;28;20273;-73
2021/05/31 08:55:39;;;;;;;1.38;0.82;;;;;;;19.99;32.76;101775.84;5046818;28;20313;-75
2021/05/31 08:58:05;;;;;;;1.55;1.02;;;;;;;20.28;34.34;101779.91;5032985;28;20869;-75
2021/05/31 09:00:36;;;;;;;1.40;1.05;;;;;;;20.39;34.85;101789.59;5033040;28;20227;-74
2021/05/31 09:03:06;;;;;;;2.20;1.63;;;;;;;20.28;35.61;101777.16;5032636;28;20190;-74
2021/05/31 09:05:33;;;;;;;2.40;1.30;;;;;;;20.07;35.17;101784.19;5016601;28;20300;-74
2021/05/31 09:08:05;;;;;;;1.58;1.10;;;;;;;20.23;35.82;101778.06;5032790;28;20187;-75
2021/05/31 09:10:55;;;;;;;2.47;1.30;;;;;;;19.97;36.58;101762.34;5068566;28;20991;-75
2021/05/31 09:13:28;;;;;;;3.58;1.40;;;;;;;20.31;38.54;101769.06;5052696;28;20670;-76
2021/05/31 09:16:16;;;;;;;5.00;1.70;;;;;;;20.51;38.89;101768.59;5062534;28;20262;-75
2021/05/31 09:19:04;;;;;;;2.15;1.55;;;;;;;20.78;39.60;101763.84;5033032;28;20800;-75
2021/05/31 09:21:36;;;;;;;1.98;1.50;;;;;;;20.73;39.00;101763.97;5048229;28;20227;-74
2021/05/31 09:24:09;;;;;;;2.50;1.50;;;;;;;20.54;39.62;101768.78;5048545;28;20214;-76
2021/05/31 09:26:47;;;;;;;3.15;1.52;;;;;;;20.94;39.17;101767.88;5025622;28;20304;-77
2021/05/31 09:29:15;;;;;;;2.28;1.70;;;;;;;20.96;39.28;101765.63;5049483;28;20691;-77
2021/05/31 09:31:40;;;;;;;2.75;1.50;;;;;;;21.04;38.61;101771.22;5031928;28;20231;-75
2021/05/31 09:34:12;;;;;;;2.50;1.52;;;;;;;21.14;39.14;101767.38;5048234;28;20282;-76
2021/05/31 09:36:48;;;;;;;1.95;1.70;;;;;;;21.11;40.44;101768.81;5044559;28;20222;-76
2021/05/31 09:39:14;;;;;;;2.28;1.58;;;;;;;21.02;40.09;101767.94;5078636;28;20853;-77
2021/05/31 09:41:44;;;;;;;4.20;1.70;;;;;;;21.12;42.00;101758.59;5070925;28;20332;-77
2021/05/31 09:44:10;;;;;;;2.75;1.65;;;;;;;21.17;40.22;101766.72;5072634;28;20638;-75
2021/05/31 09:46:43;;;;;;;2.42;1.75;;;;;;;20.99;40.04;101753.94;5088527;28;20249;-75
2021/05/31 09:49:12;;;;;;;2.58;1.73;;;;;;;20.84;40.97;101754.28;5055629;28;20185;-76
2021/05/31 09:51:50;;;;;;;3.97;1.90;;;;;;;20.89;42.59;101754.19;5071423;28;20218;-76
2021/05/31 09:54:35;;;;;;;2.38;1.63;;;;;;;21.02;40.89;101761.59;5039060;28;20633;-76
2021/05/31 09:57:20;;;;;;;1.75;1.65;;;;;;;21.21;41.50;101753.91;5089123;28;20230;-76
2021/05/31 09:59:50;;;;;;;2.58;1.73;;;;;;;21.29;41.62;101749.25;5073226;28;20651;-74
2021/05/31 10:02:27;;;;;;;2.65;1.60;;;;;;;21.23;40.48;101750.53;5070806;28;20244;-76
2021/05/31 10:05:06;;;;;;;1.92;1.70;;;;;;;21.48;39.89;101746.31;5088666;28;20566;-75
2021/05/31 10:10:00;;;;;;;3.35;1.80;;;;;;;21.47;41.19;101734.44;5072002;28;20186;-76
2021/05/31 10:12:26;;;;;;;3.05;1.60;;;;;;;21.13;41.61;101733.38;5070687;28;20242;-75
2021/05/31 10:14:52;;;;;;;3.67;1.90;;;;;;;21.29;43.25;101735.44;5071687;28;20660;-77
2021/05/31 10:17:23;;;;;;;2.72;1.90;;;;;;;21.57;41.21;101728.59;5054383;28;20716;-76
2021/05/31 10:19:51;;;;;;;2.25;1.70;;;;;;;21.64;40.45;101728.97;5056836;28;20182;-75
2021/05/31 10:22:19;;;;;;;2.03;1.65;;;;;;;22.04;41.90;101728.63;5087411;28;20256;-75
2021/05/31 10:24:45;;;;;;;3.17;1.60;;;;;;;22.24;40.27;101712.25;5071828;28;20683;-77
2021/05/31 10:27:11;;;;;;;2.80;2.20;;;;;;;22.58;40.44;101712.28;5054278;28;20218;-77
2021/05/31 10:29:43;;;;;;;2.70;1.60;;;;;;;22.49;40.46;101720.59;5058261;28;20271;-77
2021/05/31 10:32:14;;;;;;;2.40;1.75;;;;;;;22.53;39.94;101716.03;5075005;28;20218;-75
2021/05/31 10:34:47;;;;;;;2.22;1.83;;;;;;;22.38;38.59;101724.03;5092319;28;20255;-77
2021/05/31 10:37:24;;;;;;;2.58;2.00;;;;;;;22.20;40.56;101714.03;5074909;28;20703;-77
2021/05/31 10:40:02;;;;;;;2.00;1.80;;;;;;;22.00;39.53;101722.91;5092897;28;20181;-75
2021/05/31 10:42:44;;;;;;;3.22;2.20;;;;;;;21.62;39.22;101714.66;5090679;28;20695;-76
2021/05/31 10:45:24;;;;;;;2.30;1.90;;;;;;;22.28;41.61;101706.88;5074759;28;20691;-76
2021/05/31 10:48:00;;;;;;;2.92;1.90;;;;;;;22.69;40.39;101696.94;5090946;28;20198;-77
2021/05/31 10:50:48;;;;;;;2.60;1.80;;;;;;;22.93;39.83;101698.94;5091138;28;20190;-76
2021/05/31 10:53:21;;;;;;;1.80;1.60;;;;;;;22.89;38.44;101710.97;5092122;28;20223;-76
2021/05/31 10:55:55;;;;;;;2.47;1.60;;;;;;;22.81;38.17;101709.81;5091684;28;20710;-77
2021/05/31 10:58:22;;;;;;;2.13;1.90;;;;;;;22.53;39.00;101704.16;5094137;28;20205;-76
2021/05/31 11:01:01;;;;;;;3.78;1.77;;;;;;;22.87;38.24;101705.75;5055562;28;20229;-77
2021/05/31 11:03:28;;;;;;;2.88;1.98;;;;;;;22.35;39.24;101701.69;5054796;28;20193;-77
2021/05/31 11:05:53;;;;;;;3.17;1.90;;;;;;;22.51;37.78;101696.16;5054918;28;20283;-78
2021/05/31 11:08:35;;;;;;;3.30;1.75;;;;;;;22.73;38.14;101692.38;5071838;28;20186;-77
2021/05/31 11:11:01;;;;;;;3.40;1.90;;;;;;;22.85;37.00;101690.56;5074377;28;20284;-78
2021/05/31 11:13:27;;;;;;;3.47;1.75;;;;;;;22.93;38.15;101687.00;5053888;28;20179;-77
2021/05/31 11:16:04;;;;;;;1.90;1.70;;;;;;;23.17;37.55;101688.13;5054350;28;20234;-77
2021/05/31 11:18:40;;;;;;;1.65;1.52;;;;;;;23.25;36.66;101682.53;5072081;28;20763;-77
2021/05/31 11:21:06;;;;;;;2.83;1.90;;;;;;;23.02;37.88;101691.41;5059252;28;20226;-76
2021/05/31 11:23:32;;;;;;;3.22;1.70;;;;;;;23.13;38.39;101681.59;5070647;28;20561;-77
2021/05/31 11:26:00;;;;;;;2.90;1.92;;;;;;;22.74;37.88;101677.41;5070715;28;20288;-77
2021/05/31 11:28:25;;;;;;;3.60;1.80;;;;;;;22.72;38.41;101682.44;5072819;28;20581;-76
2021/05/31 11:30:51;;;;;;;1.70;1.60;;;;;;;22.75;37.76;101674.31;5071091;28;20227;-77
2021/05/31 11:33:19;;;;;;;3.75;2.00;;;;;;;23.44;39.16;101674.66;5053959;28;20229;-77
2021/05/31 11:35:47;;;;;;;2.72;1.60;;;;;;;23.93;38.43;101669.19;5060545;28;20230;-77
2021/05/31 11:38:15;;;;;;;1.95;1.73;;;;;;;23.28;37.62;101678.28;5092510;28;20162;-77
2021/05/31 11:40:42;;;;;;;2.05;1.60;;;;;;;23.58;36.97;101675.25;5067298;28;20319;-76
2021/05/31 11:43:10;;;;;;;1.60;1.50;;;;;;;23.69;38.04;101674.53;5053883;28;20680;-77
2021/05/31 11:45:37;;;;;;;3.22;1.80;;;;;;;23.58;36.55;101675.25;5070360;28;20302;-78